createdAt,value
2017-05-09T20:10:51.747Z,65.42
2017-05-09T20:12:05.640Z,63.07
2017-05-09T20:13:19.638Z,62.4
2017-05-09T20:14:33.577Z,63.89
2017-05-09T20:15:48.103Z,65.32
2017-05-09T20:17:01.905Z,65.99
2017-05-09T20:18:15.950Z,66.56
2017-05-09T20:19:30.286Z,66.75
2017-05-09T20:20:44.522Z,66.56
2017-05-09T20:21:58.085Z,65.32
2017-05-09T20:23:14.259Z,66.05
2017-05-09T20:24:28.557Z,67.29
2017-05-09T20:25:42.284Z,67.86
2017-05-09T20:27:12.113Z,68.52
2017-05-09T20:28:26.065Z,68.62
2017-05-09T20:29:40.383Z,68.15
2017-05-09T20:30:54.689Z,68.52
2017-05-09T20:32:08.313Z,68.62
2017-05-09T20:33:22.075Z,69
2017-05-09T20:34:35.851Z,69.57
2017-05-09T20:35:49.892Z,70.43
2017-05-09T20:37:04.725Z,70.81
2017-05-09T20:38:18.816Z,72.05
2017-05-09T20:39:33.062Z,71.91
2017-05-09T20:40:47.006Z,71.57
2017-05-09T20:42:01.444Z,71.91
2017-05-09T20:43:16.092Z,71.91
2017-05-09T20:44:30.020Z,72.49
2017-05-09T20:46:03.071Z,73.53
2017-05-09T20:47:17.092Z,74.96
2017-05-09T20:48:30.948Z,75.05
2017-05-09T20:49:45.146Z,74.96
2017-05-09T20:50:58.702Z,76.01
2017-05-09T20:52:12.582Z,75.91
2017-05-09T20:53:26.850Z,75.81
2017-05-09T20:54:41.299Z,75.81
2017-05-09T20:55:55.064Z,75.53
2017-05-09T20:57:09.284Z,74.96
2017-05-09T20:58:23.403Z,75.05
2017-05-09T20:59:37.342Z,74.54
2017-05-09T21:00:52.313Z,74.92
2017-05-09T21:02:05.981Z,75.59
2017-05-09T21:03:19.450Z,74.73
2017-05-09T21:04:33.070Z,74.73
2017-05-09T21:05:47.218Z,74.73
2017-05-09T21:07:01.222Z,75.02
2017-05-09T21:08:15.911Z,75.02
2017-05-09T21:09:29.931Z,74.92
2017-05-09T21:10:43.434Z,75.49
2017-05-09T21:11:57.315Z,75.49
2017-05-09T21:13:11.382Z,75.49
2017-05-09T21:14:24.938Z,75.59
2017-05-09T21:15:38.418Z,74.82
2017-05-09T21:16:52.006Z,74.54
2017-05-09T21:18:06.633Z,74.92
2017-05-09T21:19:20.635Z,74.82
2017-05-09T21:20:34.854Z,74.82
2017-05-09T21:21:48.524Z,75.02
2017-05-09T21:23:02.046Z,75.49
2017-05-09T21:24:16.561Z,75.3
2017-05-09T21:25:30.402Z,76.16
2017-05-09T21:26:44.203Z,75.59
2017-05-09T21:27:57.705Z,75.87
2017-05-09T21:29:11.265Z,75.49
2017-05-09T21:30:26.879Z,75.87
2017-05-09T21:31:41.152Z,76.54
2017-05-09T21:32:54.952Z,76.4
2017-05-09T21:34:09.288Z,76.21
2017-05-09T21:35:22.811Z,74.73
2017-05-09T21:36:36.962Z,75.78
2017-05-09T21:37:51.046Z,75.49
2017-05-09T21:39:05.384Z,74.35
2017-05-09T21:40:19.230Z,74.26
2017-05-09T21:41:33.181Z,73.88
2017-05-09T21:42:47.329Z,72.45
2017-05-09T21:44:01.588Z,70.58
2017-05-09T21:45:15.328Z,68.77
2017-05-09T21:46:30.091Z,68.21
2017-05-09T21:47:43.870Z,68.49
2017-05-09T21:48:58.544Z,68.3
2017-05-09T21:50:12.072Z,68.4
2017-05-09T21:51:26.924Z,66.68
2017-05-09T21:52:40.904Z,66.2
2017-05-09T21:53:55.289Z,65.73
2017-05-09T21:55:09.192Z,65.73
2017-05-09T21:56:22.978Z,65.64
2017-05-09T21:57:36.451Z,64.87
2017-05-09T21:58:50.593Z,64.81
2017-05-09T22:00:04.109Z,65
2017-05-09T22:01:17.935Z,66.78
2017-05-09T22:02:31.761Z,68.11
2017-05-09T22:03:45.660Z,66.3
2017-05-09T22:04:59.470Z,66.3
2017-05-09T22:06:13.014Z,65.64
2017-05-09T22:07:26.847Z,65.45
2017-05-09T22:08:40.428Z,65.54
2017-05-09T22:09:53.839Z,65.64
2017-05-09T22:11:08.561Z,65.35
2017-05-09T22:12:21.995Z,64.43
2017-05-09T22:13:36.120Z,64.21
2017-05-09T22:14:49.603Z,63.76
2017-05-09T22:16:06.972Z,64.15
2017-05-09T22:17:20.464Z,64.43
2017-05-09T22:18:34.138Z,64.15
2017-05-09T22:19:47.866Z,64.43
2017-05-09T22:21:01.770Z,64.43
2017-05-09T22:22:15.870Z,65.95
2017-05-09T22:23:29.431Z,66.39
2017-05-09T22:24:43.510Z,65.64
2017-05-09T22:25:58.077Z,65.73
2017-05-09T22:27:11.559Z,65.35
2017-05-09T22:28:25.705Z,65.54
2017-05-09T22:29:39.438Z,65.73
2017-05-09T22:30:53.352Z,65.45
2017-05-09T22:32:07.058Z,65.73
2017-05-09T22:33:20.572Z,65.54
2017-05-09T22:34:34.383Z,65.73
2017-05-09T22:35:48.933Z,66.11
2017-05-09T22:37:02.752Z,66.11
2017-05-09T22:38:16.889Z,66.39
2017-05-09T22:39:30.283Z,65.64
2017-05-09T22:40:43.858Z,65.54
2017-05-09T22:41:57.938Z,65.54
2017-05-09T22:43:11.488Z,65.16
2017-05-09T22:44:25.206Z,65.16
2017-05-09T22:45:39.223Z,65.16
2017-05-09T22:46:52.714Z,65.06
2017-05-09T22:48:06.252Z,65.25
2017-05-09T22:49:19.989Z,65.25
2017-05-09T22:50:34.632Z,65.16
2017-05-09T22:51:48.433Z,65.25
2017-05-09T22:53:02.769Z,65.64
2017-05-09T22:54:16.538Z,65.73
2017-05-09T22:55:30.405Z,65.64
2017-05-09T22:56:44.134Z,65.64
2017-05-09T22:57:58.362Z,66.49
2017-05-09T22:59:11.815Z,66.39
2017-05-09T23:00:25.376Z,66.3
2017-05-09T23:01:39.132Z,66.2
2017-05-09T23:02:53.350Z,66.68
